Time;durP1;ratioP1;P1;durP2;ratioP2;P2;SDS_P1;SDS_P2;PMS_P1;PMS_P2;Temp;Humidity;BMP_temperature;BMP_pressure;BME280_temperature;BME280_humidity;BME280_pressure;Samples;Min_cycle;Max_cycle;Signal;HPM_P1;HPM_P2
2022/01/09 00:01:22;;;;;;;;;;;;;;;10.55;71.53;101648.16;5041750;28;19951;-65
2022/01/09 00:03:49;;;;;;;;;;;;;;;10.49;71.47;101637.97;5046912;28;20434;-66
2022/01/09 00:06:16;;;;;;;;;;;;;;;10.47;71.67;101643.84;5038467;28;19959;-59
2022/01/09 00:08:46;;;;;;;;;;;;;;;10.45;71.59;101637.66;5034206;28;19967;-65
2022/01/09 00:11:13;;;;;;;;;;;;;;;10.48;71.63;101631.56;5036045;28;19925;-62
2022/01/09 00:13:40;;;;;;;;;;;;;;;10.56;71.66;101630.28;5065956;28;19920;-60
2022/01/09 00:16:07;;;;;;;;;;;;;;;10.65;71.32;101632.41;5032061;28;19939;-62
2022/01/09 00:18:36;;;;;;;;;;;;;;;10.77;71.10;101631.44;5034663;28;19920;-61
2022/01/09 00:21:06;;;;;;;;;;;;;;;10.80;70.89;101626.22;5037158;28;19927;-63
2022/01/09 00:23:33;;;;;;;;;;;;;;;10.78;70.83;101622.84;5035910;28;20019;-62
2022/01/09 00:26:01;;;;;;;;;;;;;;;10.76;71.13;101619.44;5036800;28;19952;-63
2022/01/09 00:28:27;;;;;;;;;;;;;;;10.63;71.54;101608.59;5037609;28;19920;-59
2022/01/09 00:30:54;;;;;;;;;;;;;;;10.46;73.02;101603.06;5038935;28;19921;-57
2022/01/09 00:33:22;;;;;;;;;;;;;;;10.33;73.47;101606.19;5038094;28;19964;-60
2022/01/09 00:35:49;;;;;;;;;;;;;;;10.18;74.42;101603.91;5044449;28;20007;-61
2022/01/09 00:38:16;;;;;;;;;;;;;;;10.08;74.36;101601.78;5041719;28;19959;-62
2022/01/09 00:40:44;;;;;;;;;;;;;;;9.99;75.20;101606.13;5042545;28;19929;-61
2022/01/09 00:43:11;;;;;;;;;;;;;;;9.92;75.46;101602.63;5049737;28;20221;-61
2022/01/09 00:45:39;;;;;;;;;;;;;;;9.86;76.03;101598.06;5039749;28;19921;-60
2022/01/09 00:48:07;;;;;;;;;;;;;;;9.82;76.10;101594.91;5049542;28;19962;-60
2022/01/09 00:50:36;;;;;;;;;;;;;;;9.83;76.93;101590.19;5046250;28;19927;-60
2022/01/09 00:53:03;;;;;;;;;;;;;;;9.80;76.74;101593.47;5042521;28;19921;-60
2022/01/09 00:55:30;;;;;;;;;;;;;;;9.79;76.43;101598.19;5047592;28;19960;-62
2022/01/09 00:57:57;;;;;;;;;;;;;;;9.82;76.28;101588.50;5039445;28;19958;-62
2022/01/09 01:00:23;;;;;;;;;;;;;;;9.83;76.45;101585.44;5033176;28;20032;-62
2022/01/09 01:02:50;;;;;;;;;;;;;;;9.84;76.89;101580.69;5039803;28;19928;-62
2022/01/09 01:05:17;;;;;;;;;;;;;;;9.80;77.31;101579.50;5034006;28;19951;-62
2022/01/09 01:07:43;;;;;;;;;;;;;;;9.74;77.97;101570.19;5052947;28;19920;-62
2022/01/09 01:10:11;;;;;;;;;;;;;;;9.71;78.04;101570.72;5041979;28;19920;-62
2022/01/09 01:12:37;;;;;;;;;;;;;;;9.72;78.85;101556.50;5042790;28;19927;-62
2022/01/09 01:15:04;;;;;;;;;;;;;;;9.72;78.63;101558.47;5043956;28;20020;-61
2022/01/09 01:17:32;;;;;;;;;;;;;;;9.73;78.86;101552.63;5049904;28;19924;-61
2022/01/09 01:19:59;;;;;;;;;;;;;;;9.77;78.65;101546.53;5038708;28;20295;-61
2022/01/09 01:22:28;;;;;;;;;;;;;;;9.80;79.37;101548.84;5040464;28;19920;-58
2022/01/09 01:24:57;;;;;;;;;;;;;;;9.82;79.06;101550.28;5034640;28;20011;-62
2022/01/09 01:27:26;;;;;;;;;;;;;;;9.87;79.10;101563.47;5041088;28;19948;-59
2022/01/09 01:29:53;;;;;;;;;;;;;;;9.89;79.20;101561.28;5044050;28;19959;-64
2022/01/09 01:32:22;;;;;;;;;;;;;;;9.92;79.05;101555.19;5040011;28;19948;-63
2022/01/09 01:34:49;;;;;;;;;;;;;;;9.96;79.85;101559.19;5035707;28;19947;-65
2022/01/09 01:37:15;;;;;;;;;;;;;;;9.98;79.44;101576.50;5046772;28;20007;-64
2022/01/09 01:39:42;;;;;;;;;;;;;;;10.00;79.66;101571.50;5033333;28;20012;-66
2022/01/09 01:42:09;;;;;;;;;;;;;;;10.02;79.48;101569.34;5038545;28;20003;-60
2022/01/09 01:44:43;;;;;;;;;;;;;;;10.02;79.63;101577.72;5043762;28;20015;-60
2022/01/09 01:47:13;;;;;;;;;;;;;;;10.03;79.67;101584.13;5048487;28;19925;-61
2022/01/09 01:49:40;;;;;;;;;;;;;;;10.03;79.59;101573.81;5040455;28;19925;-59
2022/01/09 01:52:07;;;;;;;;;;;;;;;10.06;79.60;101583.63;5035748;28;20016;-57
2022/01/09 01:54:34;;;;;;;;;;;;;;;10.06;79.65;101590.06;5037004;28;20411;-59
2022/01/09 01:57:02;;;;;;;;;;;;;;;10.08;79.62;101589.78;5043217;28;19959;-59
2022/01/09 01:59:29;;;;;;;;;;;;;;;10.08;79.97;101593.41;5042346;28;19951;-59
2022/01/09 02:01:56;;;;;;;;;;;;;;;10.09;79.64;101592.34;5034924;28;20352;-60
2022/01/09 02:04:22;;;;;;;;;;;;;;;10.11;79.49;101592.91;5040706;28;20435;-60
2022/01/09 02:06:50;;;;;;;;;;;;;;;10.12;80.00;101600.22;5037537;28;19935;-61
2022/01/09 02:09:16;;;;;;;;;;;;;;;10.09;80.28;101595.13;5038721;28;20013;-62
2022/01/09 02:11:45;;;;;;;;;;;;;;;10.07;80.36;101597.31;5038487;28;19975;-62
2022/01/09 02:14:11;;;;;;;;;;;;;;;10.07;80.38;101604.84;5048205;28;20379;-68
2022/01/09 02:16:40;;;;;;;;;;;;;;;10.06;80.40;101606.78;5038752;28;20015;-69
2022/01/09 02:19:08;;;;;;;;;;;;;;;10.06;80.54;101597.59;5046016;28;19921;-68
2022/01/09 02:21:35;;;;;;;;;;;;;;;10.06;80.49;101595.63;5033569;28;20023;-68
2022/01/09 02:24:02;;;;;;;;;;;;;;;10.07;80.65;101607.63;5032010;28;20020;-68
2022/01/09 02:26:28;;;;;;;;;;;;;;;10.06;80.57;101612.38;5036159;28;20011;-66
2022/01/09 02:28:55;;;;;;;;;;;;;;;10.05;80.71;101610.69;5039072;28;20016;-65
2022/01/09 02:31:22;;;;;;;;;;;;;;;10.06;80.43;101611.53;5035379;28;20031;-62
2022/01/09 02:33:48;;;;;;;;;;;;;;;10.08;80.72;101609.31;5033982;28;20004;-64
2022/01/09 02:36:16;;;;;;;;;;;;;;;10.09;80.61;101600.72;5036886;28;19964;-67
2022/01/09 02:38:43;;;;;;;;;;;;;;;10.09;80.45;101588.72;5039825;28;19983;-66
2022/01/09 02:41:10;;;;;;;;;;;;;;;10.09;80.75;101595.13;5049199;28;20019;-66
2022/01/09 02:43:36;;;;;;;;;;;;;;;10.09;80.83;101597.09;5047606;28;20027;-66
2022/01/09 02:48:53;;;;;;;;;;;;;;;10.07;81.60;101582.53;5042654;28;19944;-66
2022/01/09 02:51:19;;;;;;;;;;;;;;;10.04;81.36;101585.81;5039086;28;20391;-63
2022/01/09 02:53:56;;;;;;;;;;;;;;;10.06;81.23;101583.63;5038192;28;19928;-64
2022/01/09 02:56:25;;;;;;;;;;;;;;;10.07;81.33;101586.16;5037254;28;20356;-64
2022/01/09 02:58:51;;;;;;;;;;;;;;;10.09;81.62;101581.19;5035239;28;20020;-64
2022/01/09 03:01:18;;;;;;;;;;;;;;;10.13;81.50;101579.56;5040862;28;19962;-64
2022/01/09 03:03:46;;;;;;;;;;;;;;;10.16;81.41;101573.47;5035095;28;20103;-65
2022/01/09 03:06:13;;;;;;;;;;;;;;;10.24;81.54;101579.75;5046573;28;19921;-65
2022/01/09 03:08:40;;;;;;;;;;;;;;;10.29;81.21;101577.06;5036803;28;19971;-65
2022/01/09 03:11:06;;;;;;;;;;;;;;;10.30;81.16;101574.03;5047064;28;19959;-65
2022/01/09 03:13:33;;;;;;;;;;;;;;;10.28;81.34;101565.03;5039951;28;19921;-65
2022/01/09 03:16:00;;;;;;;;;;;;;;;10.27;81.43;101568.94;5040937;28;20019;-65
2022/01/09 03:18:27;;;;;;;;;;;;;;;10.27;81.41;101568.94;5035018;28;20023;-65
2022/01/09 03:20:54;;;;;;;;;;;;;;;10.31;81.49;101563.69;5041565;28;19928;-65
2022/01/09 03:23:20;;;;;;;;;;;;;;;10.37;81.49;101563.53;5044103;28;20383;-65
2022/01/09 03:25:47;;;;;;;;;;;;;;;10.45;81.41;101562.25;5031058;28;19956;-64
2022/01/09 03:28:14;;;;;;;;;;;;;;;10.51;81.12;101563.19;5032085;28;20020;-65
2022/01/09 03:30:40;;;;;;;;;;;;;;;10.56;81.18;101566.88;5034946;28;19964;-65
2022/01/09 03:33:07;;;;;;;;;;;;;;;10.62;81.04;101559.44;5041793;28;20019;-66
2022/01/09 03:35:34;;;;;;;;;;;;;;;10.67;80.96;101560.38;5033038;28;20293;-63
2022/01/09 03:38:00;;;;;;;;;;;;;;;10.72;80.91;101542.81;5031569;28;20016;-63
2022/01/09 03:40:29;;;;;;;;;;;;;;;10.75;80.91;101541.47;5034824;28;20024;-66
2022/01/09 03:42:56;;;;;;;;;;;;;;;10.77;81.28;101534.53;5038740;28;19920;-62
2022/01/09 03:45:24;;;;;;;;;;;;;;;10.82;81.25;101536.53;5039580;28;19978;-62
2022/01/09 03:47:51;;;;;;;;;;;;;;;10.85;81.42;101538.81;5042606;28;19935;-59
2022/01/09 03:50:18;;;;;;;;;;;;;;;10.87;81.40;101537.47;5043819;28;19979;-59
2022/01/09 03:52:48;;;;;;;;;;;;;;;10.92;81.65;101547.84;5043906;28;20011;-58
2022/01/09 03:55:16;;;;;;;;;;;;;;;10.95;81.49;101540.91;5041334;28;20010;-59
2022/01/09 03:57:42;;;;;;;;;;;;;;;10.97;81.62;101541.47;5043858;28;20368;-59
2022/01/09 04:00:12;;;;;;;;;;;;;;;11.00;81.53;101541.81;5045466;28;20380;-59
2022/01/09 04:02:39;;;;;;;;;;;;;;;11.03;81.59;101538.50;5049613;28;20007;-59
2022/01/09 04:05:07;;;;;;;;;;;;;;;11.05;81.59;101547.47;5040613;28;19925;-58
2022/01/09 04:07:35;;;;;;;;;;;;;;;11.05;81.66;101550.28;5046075;28;19973;-58
2022/01/09 04:10:03;;;;;;;;;;;;;;;11.01;81.50;101539.84;5048661;28;20317;-58
2022/01/09 04:12:34;;;;;;;;;;;;;;;10.98;81.66;101552.41;5042717;28;20043;-58
2022/01/09 04:15:06;;;;;;;;;;;;;;;10.89;81.62;101546.41;5044373;28;20059;-58
2022/01/09 04:18:07;;;;;;;;;;;;;;;10.74;81.95;101546.22;5044580;28;20325;-65
2022/01/09 04:20:28;;;;;;;;;;;;;;;10.61;82.14;101555.81;5042958;28;19921;-66
2022/01/09 04:22:55;;;;;;;;;;;;;;;10.56;82.24;101549.28;5046231;28;20016;-67
2022/01/09 04:25:22;;;;;;;;;;;;;;;10.51;82.52;101546.44;5046817;28;19964;-67
2022/01/09 04:27:50;;;;;;;;;;;;;;;10.45;82.69;101537.13;5044058;28;19921;-68
2022/01/09 04:30:17;;;;;;;;;;;;;;;10.41;83.16;101547.94;5040891;28;19956;-67
2022/01/09 04:32:43;;;;;;;;;;;;;;;10.36;83.40;101533.09;5050187;28;19971;-68
2022/01/09 04:35:11;;;;;;;;;;;;;;;10.35;83.26;101536.97;5045347;28;20842;-70
2022/01/09 04:37:39;;;;;;;;;;;;;;;10.34;83.50;101530.53;5046359;28;20011;-68
2022/01/09 04:40:08;;;;;;;;;;;;;;;10.36;83.71;101531.13;5042835;28;19931;-67
2022/01/09 04:42:42;;;;;;;;;;;;;;;10.36;83.82;101531.13;5047201;28;19921;-68
2022/01/09 04:45:10;;;;;;;;;;;;;;;10.36;84.17;101533.09;5044873;28;20015;-60
2022/01/09 04:47:39;;;;;;;;;;;;;;;10.34;84.26;101518.53;5042562;28;20007;-62
2022/01/09 04:50:07;;;;;;;;;;;;;;;10.33;84.52;101520.47;5045678;28;19920;-62
2022/01/09 04:52:38;;;;;;;;;;;;;;;10.31;84.86;101507.88;5044591;28;19921;-65
2022/01/09 04:55:04;;;;;;;;;;;;;;;10.30;85.20;101511.75;5046880;28;20019;-59
2022/01/09 04:57:31;;;;;;;;;;;;;;;10.29;85.41;101515.63;5048116;28;19921;-59
2022/01/09 04:59:58;;;;;;;;;;;;;;;10.27;85.46;101506.69;5040478;28;20400;-62
2022/01/09 05:02:25;;;;;;;;;;;;;;;10.27;85.26;101517.84;5039705;28;20443;-64
2022/01/09 05:04:51;;;;;;;;;;;;;;;10.30;85.53;101517.34;5044197;28;19921;-68
2022/01/09 05:07:18;;;;;;;;;;;;;;;10.29;85.53;101512.84;5033656;28;19948;-61
2022/01/09 05:09:45;;;;;;;;;;;;;;;10.28;85.85;101509.22;5049714;28;20395;-59
2022/01/09 05:12:11;;;;;;;;;;;;;;;10.30;85.49;101511.75;5050119;28;19964;-59
2022/01/09 05:14:38;;;;;;;;;;;;;;;10.33;85.55;101511.25;5041042;28;20023;-57
2022/01/09 05:17:05;;;;;;;;;;;;;;;10.38;85.44;101514.94;5041161;28;19943;-59
2022/01/09 05:19:34;;;;;;;;;;;;;;;10.43;85.38;101512.25;5038306;28;20008;-59
2022/01/09 05:22:02;;;;;;;;;;;;;;;10.51;85.02;101505.38;5045900;28;19948;-58
2022/01/09 05:24:29;;;;;;;;;;;;;;;10.55;84.88;101511.28;5046511;28;20015;-58
2022/01/09 05:26:55;;;;;;;;;;;;;;;10.59;85.06;101499.34;5041555;28;20015;-59
2022/01/09 05:29:23;;;;;;;;;;;;;;;10.61;84.96;101502.72;5040670;28;20349;-59
2022/01/09 05:31:49;;;;;;;;;;;;;;;10.58;84.86;101496.81;5044121;28;20369;-59
2022/01/09 05:34:16;;;;;;;;;;;;;;;10.59;84.94;101498.50;5036802;28;19920;-59
2022/01/09 05:36:43;;;;;;;;;;;;;;;10.61;85.11;101499.94;5045871;28;19957;-58
2022/01/09 05:39:10;;;;;;;;;;;;;;;10.65;84.91;101495.53;5041752;28;19921;-58
2022/01/09 05:41:38;;;;;;;;;;;;;;;10.68;84.88;101492.22;5041957;28;19921;-61
2022/01/09 05:44:05;;;;;;;;;;;;;;;10.70;85.05;101494.75;5040518;28;20015;-61
2022/01/09 05:46:31;;;;;;;;;;;;;;;10.74;84.97;101495.09;5041919;28;19921;-59
2022/01/09 05:48:58;;;;;;;;;;;;;;;10.79;84.85;101486.75;5033082;28;20100;-60
2022/01/09 05:51:25;;;;;;;;;;;;;;;10.83;85.06;101487.94;5073838;28;20007;-60
2022/01/09 05:53:51;;;;;;;;;;;;;;;10.88;84.98;101491.63;5052107;28;19935;-55
2022/01/09 05:56:18;;;;;;;;;;;;;;;10.94;84.87;101489.78;5047369;28;20317;-55
2022/01/09 05:58:45;;;;;;;;;;;;;;;11.00;84.69;101490.66;5041422;28;20015;-56
2022/01/09 06:01:12;;;;;;;;;;;;;;;11.01;84.80;101489.53;5041114;28;20045;-56
2022/01/09 06:03:39;;;;;;;;;;;;;;;11.04;84.42;101501.06;5043009;28;20011;-57
2022/01/09 06:06:06;;;;;;;;;;;;;;;11.02;84.58;101489.28;5042704;28;20388;-58
2022/01/09 06:08:32;;;;;;;;;;;;;;;11.00;84.58;101496.25;5032777;28;20019;-56
2022/01/09 06:10:59;;;;;;;;;;;;;;;11.00;84.79;101488.69;5034942;28;20019;-63
2022/01/09 06:13:26;;;;;;;;;;;;;;;11.00;84.90;101487.88;5035724;28;19921;-63
2022/01/09 06:15:53;;;;;;;;;;;;;;;11.00;84.93;101483.09;5036418;28;19921;-67
2022/01/09 06:18:21;;;;;;;;;;;;;;;11.05;84.90;101485.97;5042894;28;19941;-61
2022/01/09 06:20:48;;;;;;;;;;;;;;;11.08;84.84;101479.03;5041389;28;20003;-62
2022/01/09 06:23:20;;;;;;;;;;;;;;;11.07;85.05;101474.53;5048426;28;20015;-59
2022/01/09 06:25:49;;;;;;;;;;;;;;;11.05;84.85;101466.41;5048479;28;20043;-60
2022/01/09 06:28:19;;;;;;;;;;;;;;;11.04;85.23;101470.34;5051827;28;20360;-60
2022/01/09 06:30:46;;;;;;;;;;;;;;;11.05;85.11;101469.22;5037311;28;20333;-60
2022/01/09 06:33:12;;;;;;;;;;;;;;;11.04;85.37;101466.66;5032513;28;20601;-59
2022/01/09 06:35:40;;;;;;;;;;;;;;;11.03;85.55;101470.56;5037744;28;19956;-59
2022/01/09 06:38:07;;;;;;;;;;;;;;;11.02;85.59;101469.72;5033383;28;20020;-60
2022/01/09 06:40:34;;;;;;;;;;;;;;;11.02;85.68;101463.31;5050221;28;19925;-58
2022/01/09 06:43:03;;;;;;;;;;;;;;;11.04;85.68;101459.16;5032218;28;20011;-64
2022/01/09 06:45:30;;;;;;;;;;;;;;;11.10;85.83;101460.03;5039564;28;20003;-66
2022/01/09 06:47:57;;;;;;;;;;;;;;;11.14;85.89;101463.97;5039626;28;20329;-64
2022/01/09 06:50:25;;;;;;;;;;;;;;;11.17;85.86;101468.22;5047254;28;20327;-64
2022/01/09 06:52:52;;;;;;;;;;;;;;;11.18;85.68;101467.97;5047023;28;20058;-63
2022/01/09 06:55:19;;;;;;;;;;;;;;;11.17;85.92;101460.66;5038862;28;20027;-63
2022/01/09 06:57:46;;;;;;;;;;;;;;;11.17;85.90;101455.06;5047391;28;19927;-62
2022/01/09 07:00:14;;;;;;;;;;;;;;;11.19;85.93;101457.63;5043087;28;20440;-61
2022/01/09 07:02:41;;;;;;;;;;;;;;;11.21;86.03;101450.66;5051213;28;20357;-61
2022/01/09 07:05:09;;;;;;;;;;;;;;;11.24;86.00;101452.91;5041676;28;20335;-61
2022/01/09 07:07:35;;;;;;;;;;;;;;;11.25;85.77;101454.63;5043666;28;19972;-61
2022/01/09 07:10:02;;;;;;;;;;;;;;;11.28;85.95;101456.91;5038030;28;20035;-60
2022/01/09 07:12:29;;;;;;;;;;;;;;;11.30;85.94;101453.81;5044499;28;20015;-60
2022/01/09 07:14:55;;;;;;;;;;;;;;;11.27;85.90;101449.59;5032093;28;20024;-61
2022/01/09 07:17:22;;;;;;;;;;;;;;;11.24;85.83;101443.69;5036849;28;20019;-61
2022/01/09 07:19:50;;;;;;;;;;;;;;;11.24;86.03;101455.72;5029979;28;20398;-61
2022/01/09 07:22:16;;;;;;;;;;;;;;;11.26;86.05;101452.66;5039174;28;20003;-57
2022/01/09 07:24:43;;;;;;;;;;;;;;;11.27;86.08;101454.34;5045439;28;20011;-57
2022/01/09 07:27:10;;;;;;;;;;;;;;;11.29;85.93;101463.34;5031658;28;19929;-57
2022/01/09 07:29:37;;;;;;;;;;;;;;;11.30;86.08;101454.66;5037118;28;20012;-58
2022/01/09 07:32:04;;;;;;;;;;;;;;;11.31;86.11;101461.94;5037056;28;20016;-57
2022/01/09 07:34:31;;;;;;;;;;;;;;;11.32;86.25;101458.06;5038330;28;19924;-58
2022/01/09 07:36:58;;;;;;;;;;;;;;;11.34;86.17;101468.97;5052128;28;19964;-56
2022/01/09 07:39:25;;;;;;;;;;;;;;;11.35;86.26;101465.91;5041146;28;20000;-54
2022/01/09 07:41:52;;;;;;;;;;;;;;;11.36;86.18;101475.16;5045747;28;20304;-61
2022/01/09 07:44:18;;;;;;;;;;;;;;;11.38;86.23;101478.50;5040579;28;20016;-61
2022/01/09 07:46:45;;;;;;;;;;;;;;;11.38;86.26;101476.59;5043518;28;20031;-59
2022/01/09 07:49:15;;;;;;;;;;;;;;;11.42;86.36;101474.09;5035167;28;19980;-57
2022/01/09 07:51:42;;;;;;;;;;;;;;;11.43;86.40;101475.78;5052844;28;20012;-59
2022/01/09 07:54:18;;;;;;;;;;;;;;;11.46;86.45;101478.06;5054837;28;20016;-58
2022/01/09 07:56:45;;;;;;;;;;;;;;;11.47;86.31;101471.34;5043861;28;19990;-59
2022/01/09 07:59:12;;;;;;;;;;;;;;;11.49;86.62;101474.72;5051268;28;19980;-57
2022/01/09 08:01:39;;;;;;;;;;;;;;;11.52;86.62;101474.22;5047950;28;19920;-56
2022/01/09 08:04:06;;;;;;;;;;;;;;;11.55;86.63;101472.81;5040524;28;20008;-57
2022/01/09 08:06:33;;;;;;;;;;;;;;;11.58;86.63;101473.13;5076449;28;19923;-58
2022/01/09 08:09:00;;;;;;;;;;;;;;;11.60;86.73;101470.06;5034255;28;19921;-59
2022/01/09 08:11:27;;;;;;;;;;;;;;;11.63;86.78;101475.16;5047814;28;19961;-61
2022/01/09 08:13:54;;;;;;;;;;;;;;;11.65;86.84;101472.06;5049068;28;20404;-60
2022/01/09 08:16:20;;;;;;;;;;;;;;;11.67;86.92;101472.66;5045153;28;20004;-60
2022/01/09 08:18:47;;;;;;;;;;;;;;;11.67;86.81;101469.88;5039199;28;19921;-58
2022/01/09 08:21:19;;;;;;;;;;;;;;;11.70;86.85;101474.94;5046577;28;19920;-60
2022/01/09 08:23:47;;;;;;;;;;;;;;;11.70;86.90;101477.72;5033445;28;19920;-62
2022/01/09 08:26:16;;;;;;;;;;;;;;;11.71;87.00;101476.59;5044002;28;19935;-61
2022/01/09 08:28:46;;;;;;;;;;;;;;;11.71;86.98;101482.19;5042870;28;20021;-60
2022/01/09 08:31:14;;;;;;;;;;;;;;;11.75;87.05;101484.19;5041752;28;19999;-59
2022/01/09 08:33:41;;;;;;;;;;;;;;;11.79;87.09;101479.75;5034670;28;19975;-59
2022/01/09 08:36:08;;;;;;;;;;;;;;;11.82;86.99;101483.97;5045305;28;20047;-60
2022/01/09 08:38:34;;;;;;;;;;;;;;;11.83;87.02;101485.69;5041622;28;20365;-61
2022/01/09 08:41:01;;;;;;;;;;;;;;;11.83;86.96;101491.28;5041114;28;19935;-60
2022/01/09 08:43:28;;;;;;;;;;;;;;;11.82;86.94;101483.97;5043253;28;19979;-63
2022/01/09 08:45:55;;;;;;;;;;;;;;;11.80;87.15;101480.63;5031581;28;19960;-60
2022/01/09 08:48:22;;;;;;;;;;;;;;;11.78;87.36;101489.25;5039404;28;19924;-62
2022/01/09 08:50:48;;;;;;;;;;;;;;;11.82;87.46;101472.78;5036981;28;20170;-63
2022/01/09 08:53:15;;;;;;;;;;;;;;;11.85;87.37;101489.91;5045616;28;20443;-61
2022/01/09 08:55:42;;;;;;;;;;;;;;;11.88;87.48;101482.94;5038358;28;19925;-60
2022/01/09 08:58:09;;;;;;;;;;;;;;;11.91;87.54;101482.41;5043281;28;20015;-59
2022/01/09 09:00:35;;;;;;;;;;;;;;;11.94;87.43;101490.28;5041859;28;19929;-59
2022/01/09 09:03:02;;;;;;;;;;;;;;;11.95;87.44;101491.97;5038491;28;19925;-59
2022/01/09 09:05:29;;;;;;;;;;;;;;;11.95;87.49;101488.31;5040276;28;19924;-59
2022/01/09 09:07:58;;;;;;;;;;;;;;;11.97;87.52;101492.56;5042567;28;20015;-59
2022/01/09 09:10:26;;;;;;;;;;;;;;;11.95;87.54;101500.38;5038688;28;19994;-59
2022/01/09 09:12:54;;;;;;;;;;;;;;;11.98;87.66;101505.44;5043718;28;20019;-59
2022/01/09 09:15:22;;;;;;;;;;;;;;;11.97;87.53;101506.56;5040088;28;20417;-58
2022/01/09 09:17:51;;;;;;;;;;;;;;;11.98;87.57;101505.44;5036066;28;19921;-60
2022/01/09 09:20:18;;;;;;;;;;;;;;;12.02;87.64;101506.56;5037147;28;19921;-59
2022/01/09 09:22:44;;;;;;;;;;;;;;;12.03;87.70;101511.09;5037055;28;19921;-59
2022/01/09 09:25:11;;;;;;;;;;;;;;;12.03;87.62;101502.69;5038219;28;20464;-59
2022/01/09 09:27:38;;;;;;;;;;;;;;;12.07;87.72;101492.63;5037073;28;19924;-59
2022/01/09 09:30:05;;;;;;;;;;;;;;;12.12;87.82;101503.03;5040324;28;20055;-61
2022/01/09 09:32:32;;;;;;;;;;;;;;;12.14;87.85;101498.00;5043973;28;20011;-60
2022/01/09 09:34:59;;;;;;;;;;;;;;;12.17;87.86;101491.00;5042715;28;19921;-60
2022/01/09 09:37:28;;;;;;;;;;;;;;;12.21;88.00;101503.38;5044065;28;20389;-60
2022/01/09 09:39:55;;;;;;;;;;;;;;;12.25;88.17;101493.34;5041111;28;20024;-60
2022/01/09 09:42:25;;;;;;;;;;;;;;;12.27;88.23;101496.69;5037735;28;20459;-60
2022/01/09 09:44:52;;;;;;;;;;;;;;;12.33;88.32;101490.00;5040146;28;20376;-61
2022/01/09 09:47:19;;;;;;;;;;;;;;;12.41;88.39;101495.13;5039215;28;20678;-61
2022/01/09 09:49:47;;;;;;;;;;;;;;;12.45;88.32;101485.06;5036837;28;19927;-60
2022/01/09 09:52:17;;;;;;;;;;;;;;;12.48;88.33;101497.69;5032904;28;19921;-61
2022/01/09 09:54:48;;;;;;;;;;;;;;;12.48;88.29;101495.72;5038386;28;19921;-61
2022/01/09 09:57:14;;;;;;;;;;;;;;;12.50;88.24;101501.91;5048510;28;19927;-61
2022/01/09 09:59:41;;;;;;;;;;;;;;;12.49;88.28;101505.81;5039969;28;20008;-61
2022/01/09 10:02:14;;;;;;;;;;;;;;;12.50;88.28;101501.91;5041707;28;19928;-61
2022/01/09 10:04:58;;;;;;;;;;;;;;;12.49;88.37;101503.00;5039463;28;19921;-59
2022/01/09 10:07:25;;;;;;;;;;;;;;;12.48;88.41;101512.53;5035727;28;20023;-60
2022/01/09 10:10:03;;;;;;;;;;;;;;;12.47;88.36;101507.19;5037298;28;19935;-60
2022/01/09 10:12:31;;;;;;;;;;;;;;;12.49;88.41;101508.63;5041452;28;20011;-58
2022/01/09 10:15:03;;;;;;;;;;;;;;;12.51;88.33;101513.94;5036119;28;20514;-57
2022/01/09 10:17:30;;;;;;;;;;;;;;;12.53;88.31;101506.13;5039269;28;19971;-59
2022/01/09 10:20:17;;;;;;;;;;;;;;;12.51;88.31;101498.00;5034250;28;19932;-51
2022/01/09 10:22:48;;;;;;;;;;;;;;;12.55;88.46;101504.75;5040893;28;19921;-49
2022/01/09 10:25:23;;;;;;;;;;;;;;;12.56;88.57;101499.97;5035901;28;20448;-50
2022/01/09 10:27:51;;;;;;;;;;;;;;;12.59;88.55;101498.59;5032630;28;19935;-49
2022/01/09 10:30:21;;;;;;;;;;;;;;;12.64;88.68;101499.44;5031655;28;19967;-51
2022/01/09 10:32:52;;;;;;;;;;;;;;;12.63;88.69;101503.38;5038623;28;20692;-51
2022/01/09 10:35:19;;;;;;;;;;;;;;;12.62;88.61;101510.09;5043080;28;19964;-50
2022/01/09 10:37:47;;;;;;;;;;;;;;;12.64;88.64;101512.63;5043517;28;20420;-52
2022/01/09 10:40:21;;;;;;;;;;;;;;;12.64;88.65;101501.41;5035488;28;20023;-52
2022/01/09 10:43:00;;;;;;;;;;;;;;;12.69;88.78;101515.47;5035738;28;20019;-48
2022/01/09 10:45:27;;;;;;;;;;;;;;;12.63;88.72;101510.94;5039777;28;19924;-52
2022/01/09 10:48:00;;;;;;;;;;;;;;;12.76;88.83;101510.47;5040329;28;20012;-51
2022/01/09 10:50:29;;;;;;;;;;;;;;;12.79;88.80;101515.53;5045712;28;19928;-53
2022/01/09 10:53:31;;;;;;;;;;;;;;;12.85;88.95;101517.22;5036342;28;20011;-53
2022/01/09 10:56:02;;;;;;;;;;;;;;;12.89;88.84;101521.19;5058591;28;20011;-52
2022/01/09 10:58:29;;;;;;;;;;;;;;;12.93;88.99;101521.50;5036983;28;20011;-52
2022/01/09 11:01:14;;;;;;;;;;;;;;;12.94;88.71;101509.16;5033228;28;20369;-52
2022/01/09 11:03:48;;;;;;;;;;;;;;;12.98;88.95;101505.50;5035847;28;20403;-51
2022/01/09 11:06:16;;;;;;;;;;;;;;;13.01;88.88;101507.78;5036785;28;19920;-48
2022/01/09 11:08:43;;;;;;;;;;;;;;;13.02;88.81;101503.00;5041403;28;19990;-50
2022/01/09 11:11:18;;;;;;;;;;;;;;;13.01;88.87;101504.97;5043674;28;19925;-50
2022/01/09 11:13:48;;;;;;;;;;;;;;;13.06;88.95;101509.78;5039814;28;20016;-50
2022/01/09 11:16:34;;;;;;;;;;;;;;;13.05;88.83;101502.47;5045201;28;19964;-49
2022/01/09 11:19:02;;;;;;;;;;;;;;;13.04;88.82;101496.00;5037075;28;20428;-49
2022/01/09 11:21:29;;;;;;;;;;;;;;;13.07;88.80;101499.41;5039035;28;20343;-50
2022/01/09 11:23:58;;;;;;;;;;;;;;;13.08;88.78;101484.25;5047625;28;19921;-51
2022/01/09 11:26:29;;;;;;;;;;;;;;;13.09;88.92;101485.94;5047828;28;20019;-51
2022/01/09 11:28:56;;;;;;;;;;;;;;;13.09;88.86;101489.56;5042796;28;19927;-53
2022/01/09 11:31:43;;;;;;;;;;;;;;;13.09;88.74;101485.94;5044822;28;20312;-52
2022/01/09 11:34:15;;;;;;;;;;;;;;;13.12;88.77;101485.38;5049475;28;20273;-51
2022/01/09 11:36:58;;;;;;;;;;;;;;;13.15;88.78;101477.25;5043112;28;20408;-50
2022/01/09 11:39:35;;;;;;;;;;;;;;;13.23;88.95;101489.91;5046882;28;19925;-53
2022/01/09 11:42:10;;;;;;;;;;;;;;;13.25;88.82;101488.53;5042006;28;19929;-50
2022/01/09 11:44:48;;;;;;;;;;;;;;;13.26;88.63;101481.84;5036737;28;19952;-51
2022/01/09 11:47:15;;;;;;;;;;;;;;;13.26;88.79;101475.34;5039205;28;19929;-59
2022/01/09 11:49:49;;;;;;;;;;;;;;;13.29;88.67;101474.81;5044690;28;19921;-49
2022/01/09 11:52:16;;;;;;;;;;;;;;;13.29;88.77;101477.63;5038259;28;20288;-53
2022/01/09 11:54:47;;;;;;;;;;;;;;;13.31;88.75;101471.75;5037115;28;19943;-53
2022/01/09 11:57:20;;;;;;;;;;;;;;;13.30;88.74;101472.84;5041818;28;20015;-50
2022/01/09 11:59:48;;;;;;;;;;;;;;;13.29;88.78;101474.81;5045503;28;20015;-49
2022/01/09 12:02:14;;;;;;;;;;;;;;;13.26;88.72;101469.75;5038536;28;20004;-51
2022/01/09 12:04:41;;;;;;;;;;;;;;;13.25;88.81;101462.47;5049837;28;20051;-48
2022/01/09 12:07:12;;;;;;;;;;;;;;;13.24;88.76;101458.81;5041477;28;20059;-52
2022/01/09 12:09:41;;;;;;;;;;;;;;;13.22;88.83;101457.38;5038541;28;19920;-52
2022/01/09 12:12:10;;;;;;;;;;;;;;;13.22;88.92;101452.59;5035012;28;19929;-54
2022/01/09 12:14:51;;;;;;;;;;;;;;;13.23;89.05;101451.50;5042624;28;20431;-52
2022/01/09 12:17:26;;;;;;;;;;;;;;;13.22;88.83;101446.97;5040591;28;20293;-54
2022/01/09 12:19:54;;;;;;;;;;;;;;;13.21;89.03;101452.88;5035094;28;19927;-53
2022/01/09 12:22:48;;;;;;;;;;;;;;;13.19;89.13;101452.31;5038975;28;20139;-53
2022/01/09 12:25:22;;;;;;;;;;;;;;;13.15;89.06;101451.19;5043054;28;19920;-52
2022/01/09 12:27:54;;;;;;;;;;;;;;;13.13;89.20;101454.28;5044569;28;19925;-52
2022/01/09 12:30:33;;;;;;;;;;;;;;;13.17;89.29;101448.97;5039706;28;20002;-52
2022/01/09 12:33:00;;;;;;;;;;;;;;;13.17;89.21;101446.16;5041414;28;20007;-52
2022/01/09 12:35:27;;;;;;;;;;;;;;;13.19;89.28;101447.53;5035931;28;19967;-53
2022/01/09 12:37:55;;;;;;;;;;;;;;;13.25;89.29;101445.63;5037308;28;19925;-52
2022/01/09 12:40:23;;;;;;;;;;;;;;;13.26;89.33;101438.88;5043589;28;19931;-64
2022/01/09 12:42:51;;;;;;;;;;;;;;;13.23;89.22;101436.59;5038914;28;19964;-62
2022/01/09 12:45:27;;;;;;;;;;;;;;;13.21;89.28;101441.66;5041481;28;20385;-52
2022/01/09 12:47:55;;;;;;;;;;;;;;;13.18;89.28;101433.81;5044703;28;19924;-52